N3898R ZZZZ-KILM
Flight info
| Callsign | N3898R |
|---|---|
| Flight time | N/A |
| Altitude | 4000 |
| Route | WALLO V213 ILM |
| Aircraft | C172/L-SDE3/L |
Departure
| Time | N/A |
|---|---|
| Airport | ZZZZ |
Arrival
| Time | 2026-05-07 00:54 |
|---|---|
| Airport | Wilmington International Airport (KILM) |
| Time | Latitude | Longitude | Altitude | Speed | Heading |
|---|---|---|---|---|---|
| 2026-05-07 00:14 | 35.41598 | -78.14430 | 3446 ft | 102 kts | 177° |
| 2026-05-07 00:14 | 35.40671 | -78.14254 | 3449 ft | 103 kts | 177° |
| 2026-05-07 00:14 | 35.39742 | -78.14079 | 3449 ft | 104 kts | 177° |
| 2026-05-07 00:15 | 35.38823 | -78.13892 | 3449 ft | 105 kts | 175° |
| 2026-05-07 00:15 | 35.37926 | -78.13658 | 3449 ft | 105 kts | 172° |
| 2026-05-07 00:15 | 35.36953 | -78.13326 | 3449 ft | 106 kts | 171° |
| 2026-05-07 00:15 | 35.36004 | -78.12987 | 3449 ft | 106 kts | 170° |
| 2026-05-07 00:16 | 35.35154 | -78.12685 | 3450 ft | 106 kts | 170° |
| 2026-05-07 00:16 | 35.34180 | -78.12337 | 3563 ft | 104 kts | 170° |
| 2026-05-07 00:16 | 35.33228 | -78.12045 | 3731 ft | 100 kts | 172° |
| 2026-05-07 00:16 | 35.32353 | -78.11753 | 3890 ft | 99 kts | 171° |
| 2026-05-07 00:17 | 35.31458 | -78.11445 | 4057 ft | 97 kts | 171° |
| 2026-05-07 00:17 | 35.30605 | -78.11146 | 4219 ft | 96 kts | 171° |
| 2026-05-07 00:17 | 35.29771 | -78.10851 | 4183 ft | 108 kts | 169° |
| 2026-05-07 00:17 | 35.28762 | -78.10442 | 4099 ft | 110 kts | 167° |
| 2026-05-07 00:18 | 35.27811 | -78.10077 | 4038 ft | 108 kts | 171° |
| 2026-05-07 00:18 | 35.26824 | -78.09758 | 4056 ft | 103 kts | 171° |
| 2026-05-07 00:18 | 35.25894 | -78.09461 | 4060 ft | 100 kts | 171° |
| 2026-05-07 00:18 | 35.25029 | -78.09187 | 4062 ft | 99 kts | 171° |
| 2026-05-07 00:19 | 35.24178 | -78.08920 | 4064 ft | 98 kts | 171° |
| 2026-05-07 00:19 | 35.23369 | -78.08669 | 4065 ft | 98 kts | 171° |
| 2026-05-07 00:19 | 35.22570 | -78.08424 | 4066 ft | 97 kts | 171° |
| 2026-05-07 00:19 | 35.21726 | -78.08167 | 4068 ft | 97 kts | 171° |
| 2026-05-07 00:20 | 35.20854 | -78.07907 | 4069 ft | 97 kts | 171° |
| 2026-05-07 00:20 | 35.19949 | -78.07641 | 4070 ft | 96 kts | 171° |
| 2026-05-07 00:20 | 35.19041 | -78.07378 | 4071 ft | 96 kts | 171° |
| 2026-05-07 00:20 | 35.18180 | -78.07127 | 4071 ft | 96 kts | 171° |
| 2026-05-07 00:21 | 35.17295 | -78.06780 | 4071 ft | 97 kts | 163° |
| 2026-05-07 00:21 | 35.16412 | -78.06337 | 4070 ft | 97 kts | 166° |
| 2026-05-07 00:21 | 35.15518 | -78.05943 | 4071 ft | 97 kts | 165° |
| 2026-05-07 00:21 | 35.14654 | -78.05577 | 4070 ft | 97 kts | 166° |
| 2026-05-07 00:22 | 35.14025 | -78.05324 | 4070 ft | 97 kts | 167° |
| 2026-05-07 00:22 | 35.13243 | -78.05019 | 4070 ft | 97 kts | 167° |
| 2026-05-07 00:22 | 35.12620 | -78.04784 | 4070 ft | 97 kts | 167° |
| 2026-05-07 00:22 | 35.11969 | -78.04541 | 4070 ft | 96 kts | 168° |
| 2026-05-07 00:23 | 35.11372 | -78.04322 | 4070 ft | 96 kts | 168° |
| 2026-05-07 00:23 | 35.10901 | -78.04150 | 4070 ft | 96 kts | 168° |
| 2026-05-07 00:23 | 35.10170 | -78.03887 | 4070 ft | 96 kts | 168° |
| 2026-05-07 00:23 | 35.09494 | -78.03645 | 4070 ft | 96 kts | 168° |
| 2026-05-07 00:24 | 35.08598 | -78.03325 | 4070 ft | 96 kts | 168° |
| 2026-05-07 00:24 | 35.07709 | -78.03010 | 4070 ft | 96 kts | 168° |
| 2026-05-07 00:24 | 35.06802 | -78.02689 | 4070 ft | 96 kts | 168° |
| 2026-05-07 00:24 | 35.06005 | -78.02408 | 4070 ft | 96 kts | 168° |
| 2026-05-07 00:25 | 35.05267 | -78.02148 | 4070 ft | 96 kts | 168° |
| 2026-05-07 00:25 | 35.04606 | -78.01915 | 4070 ft | 96 kts | 168° |
| 2026-05-07 00:25 | 35.03913 | -78.01671 | 4070 ft | 96 kts | 168° |
| 2026-05-07 00:25 | 35.03056 | -78.01369 | 4070 ft | 96 kts | 168° |
| 2026-05-07 00:26 | 35.02356 | -78.01123 | 4070 ft | 96 kts | 168° |
| 2026-05-07 00:26 | 35.01488 | -78.00819 | 4070 ft | 96 kts | 168° |
| 2026-05-07 00:26 | 35.00607 | -78.00509 | 4070 ft | 96 kts | 168° |
| 2026-05-07 00:26 | 35.00041 | -78.00311 | 4070 ft | 96 kts | 168° |
| 2026-05-07 00:27 | 34.99339 | -78.00064 | 4070 ft | 96 kts | 168° |
| 2026-05-07 00:27 | 34.98453 | -77.99753 | 4070 ft | 96 kts | 168° |
| 2026-05-07 00:27 | 34.97641 | -77.99468 | 4070 ft | 96 kts | 168° |
| 2026-05-07 00:27 | 34.96754 | -77.99157 | 4070 ft | 96 kts | 168° |
| 2026-05-07 00:28 | 34.95962 | -77.98879 | 4070 ft | 96 kts | 169° |
| 2026-05-07 00:28 | 34.95433 | -77.98694 | 4070 ft | 96 kts | 169° |
| 2026-05-07 00:28 | 34.94828 | -77.98482 | 4070 ft | 96 kts | 169° |
| 2026-05-07 00:28 | 34.93957 | -77.98177 | 4070 ft | 96 kts | 169° |
| 2026-05-07 00:29 | 34.93076 | -77.97868 | 4070 ft | 96 kts | 169° |
| 2026-05-07 00:29 | 34.92230 | -77.97572 | 4071 ft | 96 kts | 169° |
| 2026-05-07 00:30 | 34.89645 | -77.96667 | 4074 ft | 96 kts | 169° |
| 2026-05-07 00:30 | 34.88765 | -77.96359 | 4078 ft | 97 kts | 169° |
| 2026-05-07 00:30 | 34.87846 | -77.96034 | 4078 ft | 99 kts | 168° |
| 2026-05-07 00:30 | 34.86917 | -77.95718 | 4078 ft | 99 kts | 171° |
| 2026-05-07 00:31 | 34.85968 | -77.95448 | 4079 ft | 99 kts | 173° |
| 2026-05-07 00:31 | 34.85023 | -77.95212 | 4079 ft | 100 kts | 172° |
| 2026-05-07 00:31 | 34.84130 | -77.95065 | 3972 ft | 103 kts | 181° |
| 2026-05-07 00:31 | 34.83142 | -77.94963 | 3977 ft | 101 kts | 176° |
| 2026-05-07 00:32 | 34.82197 | -77.94806 | 3995 ft | 97 kts | 179° |
| 2026-05-07 00:32 | 34.81284 | -77.94657 | 4041 ft | 93 kts | 181° |
| 2026-05-07 00:32 | 34.80415 | -77.94616 | 4083 ft | 92 kts | 185° |
| 2026-05-07 00:32 | 34.79501 | -77.94559 | 4075 ft | 96 kts | 176° |
| 2026-05-07 00:33 | 34.78580 | -77.94361 | 4071 ft | 98 kts | 176° |
| 2026-05-07 00:33 | 34.78031 | -77.94222 | 4073 ft | 99 kts | 174° |
| 2026-05-07 00:33 | 34.77562 | -77.94102 | 4074 ft | 99 kts | 174° |
| 2026-05-07 00:33 | 34.76709 | -77.93902 | 4071 ft | 99 kts | 175° |
| 2026-05-07 00:34 | 34.75798 | -77.93665 | 4073 ft | 100 kts | 174° |
| 2026-05-07 00:34 | 34.74851 | -77.93558 | 4073 ft | 98 kts | 180° |
| 2026-05-07 00:34 | 34.73912 | -77.93469 | 4073 ft | 96 kts | 180° |
| 2026-05-07 00:34 | 34.72991 | -77.93385 | 4072 ft | 96 kts | 180° |
| 2026-05-07 00:35 | 34.72165 | -77.93274 | 4074 ft | 96 kts | 180° |
| 2026-05-07 00:35 | 34.71258 | -77.93139 | 4075 ft | 96 kts | 180° |
| 2026-05-07 00:35 | 34.70578 | -77.93037 | 4075 ft | 98 kts | 180° |
| 2026-05-07 00:35 | 34.70083 | -77.92963 | 4079 ft | 98 kts | 178° |
| 2026-05-07 00:36 | 34.69513 | -77.92904 | 4076 ft | 97 kts | 179° |
| 2026-05-07 00:36 | 34.68905 | -77.92859 | 4074 ft | 97 kts | 180° |
| 2026-05-07 00:36 | 34.68208 | -77.92783 | 4074 ft | 98 kts | 178° |
| 2026-05-07 00:36 | 34.67459 | -77.92672 | 4074 ft | 97 kts | 181° |
| 2026-05-07 00:37 | 34.66643 | -77.92589 | 4073 ft | 98 kts | 180° |
| 2026-05-07 00:37 | 34.65826 | -77.92500 | 4075 ft | 98 kts | 179° |
| 2026-05-07 00:37 | 34.65147 | -77.92420 | 4072 ft | 99 kts | 181° |
| 2026-05-07 00:37 | 34.64211 | -77.92311 | 4074 ft | 99 kts | 180° |
| 2026-05-07 00:38 | 34.63315 | -77.92203 | 4071 ft | 99 kts | 181° |
| 2026-05-07 00:38 | 34.62368 | -77.92072 | 4073 ft | 101 kts | 179° |
| 2026-05-07 00:38 | 34.61409 | -77.91917 | 4133 ft | 96 kts | 177° |
| 2026-05-07 00:38 | 34.60477 | -77.91766 | 4107 ft | 98 kts | 178° |
| 2026-05-07 00:39 | 34.59589 | -77.91612 | 4102 ft | 98 kts | 175° |
| 2026-05-07 00:39 | 34.58690 | -77.91423 | 4101 ft | 98 kts | 177° |
| 2026-05-07 00:39 | 34.57822 | -77.91253 | 4101 ft | 98 kts | 178° |
| 2026-05-07 00:39 | 34.57118 | -77.91130 | 4098 ft | 99 kts | 179° |
| 2026-05-07 00:40 | 34.56594 | -77.91036 | 4100 ft | 99 kts | 179° |
| 2026-05-07 00:40 | 34.55935 | -77.90924 | 4100 ft | 99 kts | 179° |
| 2026-05-07 00:40 | 34.55106 | -77.90788 | 4099 ft | 99 kts | 179° |
| 2026-05-07 00:40 | 34.54150 | -77.90620 | 4104 ft | 100 kts | 179° |
| 2026-05-07 00:41 | 34.53247 | -77.90476 | 4103 ft | 98 kts | 177° |
| 2026-05-07 00:41 | 34.52338 | -77.90250 | 4099 ft | 101 kts | 163° |
| 2026-05-07 00:41 | 34.51662 | -77.89342 | 4098 ft | 114 kts | 120° |
| 2026-05-07 00:41 | 34.51516 | -77.88026 | 4108 ft | 119 kts | 99° |
| 2026-05-07 00:42 | 34.51512 | -77.86650 | 4103 ft | 119 kts | 97° |
| 2026-05-07 00:42 | 34.51505 | -77.85255 | 4102 ft | 119 kts | 98° |
| 2026-05-07 00:42 | 34.51418 | -77.83881 | 4106 ft | 120 kts | 102° |
| 2026-05-07 00:42 | 34.51316 | -77.82558 | 4083 ft | 120 kts | 102° |
| 2026-05-07 00:43 | 34.50988 | -77.81323 | 3944 ft | 113 kts | 133° |
| 2026-05-07 00:43 | 34.50379 | -77.80370 | 3820 ft | 112 kts | 138° |
| 2026-05-07 00:43 | 34.49862 | -77.79632 | 3709 ft | 113 kts | 139° |
| 2026-05-07 00:43 | 34.49204 | -77.78690 | 3537 ft | 108 kts | 139° |
| 2026-05-07 00:44 | 34.48688 | -77.77944 | 3405 ft | 106 kts | 139° |
| 2026-05-07 00:44 | 34.48321 | -77.77413 | 3302 ft | 103 kts | 139° |
| 2026-05-07 00:44 | 34.47730 | -77.76559 | 3140 ft | 102 kts | 140° |
| 2026-05-07 00:44 | 34.47108 | -77.75647 | 2965 ft | 102 kts | 140° |
| 2026-05-07 00:45 | 34.46472 | -77.74732 | 2799 ft | 103 kts | 139° |
| 2026-05-07 00:45 | 34.45812 | -77.74141 | 2641 ft | 94 kts | 171° |
| 2026-05-07 00:45 | 34.44991 | -77.74268 | 2469 ft | 91 kts | 211° |
| 2026-05-07 00:45 | 34.44244 | -77.74579 | 2400 ft | 90 kts | 198° |
| 2026-05-07 00:46 | 34.43480 | -77.74826 | 2373 ft | 88 kts | 198° |
| 2026-05-07 00:46 | 34.42774 | -77.75039 | 2411 ft | 82 kts | 196° |
| 2026-05-07 00:46 | 34.42050 | -77.75212 | 2329 ft | 85 kts | 194° |
| 2026-05-07 00:46 | 34.41347 | -77.75551 | 2152 ft | 92 kts | 211° |
| 2026-05-07 00:47 | 34.40644 | -77.75959 | 2196 ft | 84 kts | 205° |
| 2026-05-07 00:47 | 34.39970 | -77.76266 | 2168 ft | 84 kts | 197° |
| 2026-05-07 00:47 | 34.39484 | -77.76457 | 2114 ft | 85 kts | 204° |
| 2026-05-07 00:47 | 34.38795 | -77.76765 | 2012 ft | 87 kts | 202° |
| 2026-05-07 00:48 | 34.38134 | -77.77035 | 1975 ft | 86 kts | 204° |
| 2026-05-07 00:48 | 34.37441 | -77.77335 | 2010 ft | 80 kts | 201° |
| 2026-05-07 00:48 | 34.36758 | -77.77653 | 2003 ft | 80 kts | 203° |
| 2026-05-07 00:48 | 34.36078 | -77.77883 | 1965 ft | 81 kts | 199° |
| 2026-05-07 00:49 | 34.35625 | -77.78432 | 2041 ft | 74 kts | 224° |
| 2026-05-07 00:49 | 34.35262 | -77.78921 | 2107 ft | 74 kts | 229° |
| 2026-05-07 00:49 | 34.34963 | -77.79373 | 2118 ft | 77 kts | 227° |
| 2026-05-07 00:49 | 34.34610 | -77.79823 | 2127 ft | 80 kts | 222° |
| 2026-05-07 00:50 | 34.34174 | -77.80382 | 2118 ft | 83 kts | 227° |
| 2026-05-07 00:50 | 34.33695 | -77.81029 | 1950 ft | 86 kts | 228° |
| 2026-05-07 00:50 | 34.33145 | -77.81508 | 1779 ft | 89 kts | 215° |
| 2026-05-07 00:50 | 34.32741 | -77.82124 | 1811 ft | 85 kts | 236° |
| 2026-05-07 00:51 | 34.32426 | -77.82629 | 1601 ft | 91 kts | 227° |
| 2026-05-07 00:51 | 34.32030 | -77.83170 | 1515 ft | 89 kts | 229° |
| 2026-05-07 00:51 | 34.31609 | -77.83747 | 1420 ft | 88 kts | 226° |
| 2026-05-07 00:51 | 34.31168 | -77.84380 | 1343 ft | 88 kts | 226° |
| 2026-05-07 00:52 | 34.30743 | -77.84959 | 1275 ft | 88 kts | 224° |
| 2026-05-07 00:52 | 34.30275 | -77.85526 | 1191 ft | 89 kts | 225° |
| 2026-05-07 00:52 | 34.29854 | -77.86124 | 1143 ft | 87 kts | 225° |
| 2026-05-07 00:52 | 34.29408 | -77.86723 | 1071 ft | 88 kts | 227° |
| 2026-05-07 00:53 | 34.28975 | -77.87305 | 920 ft | 84 kts | 224° |
| 2026-05-07 00:53 | 34.28540 | -77.87870 | 713 ft | 79 kts | 227° |
| 2026-05-07 00:53 | 34.28170 | -77.88374 | 547 ft | 76 kts | 225° |
| 2026-05-07 00:53 | 34.27745 | -77.88917 | 319 ft | 77 kts | 223° |
| 2026-05-07 00:54 | 34.27335 | -77.89485 | 126 ft | 74 kts | 225° |
| 2026-05-07 00:54 | 34.26958 | -77.89992 | 30 ft | 56 kts | 225° |
| 2026-05-07 00:54 | 34.26696 | -77.90343 | 24 ft | 41 kts | 225° |
| 2026-05-07 00:54 | 34.26514 | -77.90591 | 22 ft | 30 kts | 229° |
| 2026-05-07 00:55 | 34.26417 | -77.90718 | 22 ft | 18 kts | 230° |
| 2026-05-07 00:55 | 34.26417 | -77.90806 | 22 ft | 14 kts | 309° |
| 2026-05-07 00:55 | 34.26456 | -77.90855 | 23 ft | 0 kts | 315° |
| 2026-05-07 00:56 | 34.26458 | -77.90859 | 23 ft | 6 kts | 313° |
| 2026-05-07 00:56 | 34.26543 | -77.90852 | 24 ft | 24 kts | 52° |
| 2026-05-07 00:56 | 34.26679 | -77.90672 | 24 ft | 35 kts | 52° |
| 2026-05-07 00:56 | 34.26823 | -77.90557 | 27 ft | 7 kts | 11° |
| 2026-05-07 00:57 | 34.26919 | -77.90573 | 27 ft | 24 kts | 336° |
| 2026-05-07 00:57 | 34.27076 | -77.90647 | 27 ft | 19 kts | 305° |
| 2026-05-07 00:57 | 34.27132 | -77.90773 | 27 ft | 17 kts | 323° |
| 2026-05-07 00:57 | 34.27159 | -77.90859 | 27 ft | 10 kts | 262° |
| 2026-05-07 00:58 | 34.27180 | -77.90926 | 27 ft | 2 kts | 240° |